Погода Любанына неделю

Могилёвская область, Белоруссия

23 - 29 мая
  • 23мая
    Сегодня
    +10°
    +24°
    Пасмурно, дожди с грозами
    ВремяПогодаТемператураВлажностьДавлениеВетер, м/сВероятность осадков
    00:00Ясно и безоблачно+15°C90 %752 мм3.5 м/с2 %
    03:00Практически безоблачно+14°C95 %752 мм3.1 м/с2 %
    06:00Ясно и безоблачно+14°C94 %752 мм4.1 м/с2 %
    09:00Ясно и безоблачно+19°C75 %753 мм4.4 м/с2 %
    12:00Практически безоблачно+22°C62 %754 мм5.4 м/с3 %
    15:00Пасмурно, дожди с грозами+23°C52 %754 мм5.6 м/с30 %
    18:00Небольшая облачность+23°C51 %754 мм5.6 м/с33 %
    21:00Ясно и безоблачно+19°C53 %755 мм5.7 м/с1 %
  • 24мая
    Пятница
    +10°
    +22°
    Ясно и безоблачно
    ВремяПогодаТемператураВлажностьДавлениеВетер, м/сВероятность осадков
    00:00Ясно и безоблачно+15°C55 %756 мм5.3 м/с2 %
    03:00Ясно и безоблачно+13°C60 %757 мм5.1 м/с2 %
    06:00Ясно и безоблачно+11°C60 %757 мм5.0 м/с2 %
    09:00Ясно и безоблачно+15°C53 %758 мм5.1 м/с2 %
    12:00Ясно и безоблачно+19°C45 %758 мм4.9 м/с2 %
    15:00Ясно и безоблачно+21°C40 %758 мм4.7 м/с2 %
    18:00Ясно и безоблачно+21°C42 %757 мм4.7 м/с2 %
    21:00Ясно и безоблачно+17°C58 %757 мм3.4 м/с2 %
  • 25мая
    Суббота
    +10°
    +23°
    Ясно и безоблачно
    ВремяПогодаТемператураВлажностьДавлениеВетер, м/сВероятность осадков
    00:00Ясно и безоблачно+13°C66 %757 мм3.5 м/с2 %
    03:00Ясно и безоблачно+11°C67 %757 мм3.7 м/с2 %
    06:00Ясно и безоблачно+11°C63 %757 мм3.5 м/с2 %
    09:00Ясно и безоблачно+16°C50 %757 мм3.5 м/с2 %
    12:00Ясно и безоблачно+22°C43 %757 мм3.7 м/с2 %
    15:00Ясно и безоблачно+22°C37 %756 мм3.5 м/с2 %
    18:00Ясно и безоблачно+23°C37 %755 мм3.1 м/с2 %
    21:00Ясно и безоблачно+17°C64 %755 мм2.3 м/с2 %
  • 26мая
    Воскресенье
    +10°
    +24°
    Практически безоблачно
    ВремяПогодаТемператураВлажностьДавлениеВетер, м/сВероятность осадков
    00:00Ясно и безоблачно+12°C78 %755 мм2.4 м/с2 %
    03:00Облачно с прояснениями+11°C79 %754 мм2.0 м/с2 %
    06:00Практически безоблачно+10°C80 %754 мм1.7 м/с2 %
    09:00Практически безоблачно+18°C58 %755 мм1.2 м/с2 %
    12:00Облачно с прояснениями+22°C36 %755 мм1.5 м/с2 %
    15:00Практически безоблачно+23°C37 %754 мм1.1 м/с2 %
    18:00Ясно и безоблачно+24°C38 %754 мм1.2 м/с3 %
    21:00Ясно и безоблачно+17°C65 %754 мм2.2 м/с2 %
Мы используем cookies
Соглашаюсь